sensor_id;sensor_type;location;lat;lon;timestamp;P1;durP1;ratioP1;P2;durP2;ratioP2
47251;SDS011;32991;51.374;11.586;2022-07-29T00:02:24;4.45;;;1.67;;
47251;SDS011;32991;51.374;11.586;2022-07-29T00:04:51;5.30;;;1.65;;
47251;SDS011;32991;51.374;11.586;2022-07-29T00:07:18;4.28;;;1.77;;
47251;SDS011;32991;51.374;11.586;2022-07-29T00:09:45;6.75;;;1.55;;
47251;SDS011;32991;51.374;11.586;2022-07-29T00:12:18;3.92;;;1.77;;
47251;SDS011;32991;51.374;11.586;2022-07-29T00:14:53;4.78;;;1.73;;
47251;SDS011;32991;51.374;11.586;2022-07-29T00:17:21;8.20;;;2.00;;
47251;SDS011;32991;51.374;11.586;2022-07-29T00:19:48;6.70;;;1.50;;
47251;SDS011;32991;51.374;11.586;2022-07-29T00:22:15;3.72;;;1.70;;
47251;SDS011;32991;51.374;11.586;2022-07-29T00:24:42;4.82;;;1.80;;
47251;SDS011;32991;51.374;11.586;2022-07-29T00:27:09;3.67;;;1.73;;
47251;SDS011;32991;51.374;11.586;2022-07-29T00:29:35;5.50;;;1.73;;
47251;SDS011;32991;51.374;11.586;2022-07-29T00:32:02;5.15;;;2.10;;
47251;SDS011;32991;51.374;11.586;2022-07-29T00:34:30;5.70;;;1.75;;
47251;SDS011;32991;51.374;11.586;2022-07-29T00:37:15;5.40;;;1.70;;
47251;SDS011;32991;51.374;11.586;2022-07-29T00:39:42;2.67;;;1.60;;
47251;SDS011;32991;51.374;11.586;2022-07-29T00:42:09;5.00;;;1.73;;
47251;SDS011;32991;51.374;11.586;2022-07-29T00:44:37;3.00;;;1.40;;
47251;SDS011;32991;51.374;11.586;2022-07-29T00:47:04;4.00;;;1.50;;
47251;SDS011;32991;51.374;11.586;2022-07-29T00:49:32;15.35;;;1.40;;
47251;SDS011;32991;51.374;11.586;2022-07-29T00:52:01;5.00;;;1.63;;
47251;SDS011;32991;51.374;11.586;2022-07-29T00:54:28;4.95;;;1.58;;
47251;SDS011;32991;51.374;11.586;2022-07-29T00:56:57;3.50;;;1.42;;
47251;SDS011;32991;51.374;11.586;2022-07-29T00:59:25;5.72;;;1.70;;
47251;SDS011;32991;51.374;11.586;2022-07-29T01:02:00;2.45;;;1.45;;
47251;SDS011;32991;51.374;11.586;2022-07-29T01:04:30;6.20;;;1.65;;
47251;SDS011;32991;51.374;11.586;2022-07-29T01:06:58;3.67;;;1.70;;
47251;SDS011;32991;51.374;11.586;2022-07-29T01:09:27;8.73;;;2.03;;
47251;SDS011;32991;51.374;11.586;2022-07-29T01:12:15;4.72;;;1.73;;
47251;SDS011;32991;51.374;11.586;2022-07-29T01:14:44;2.42;;;1.55;;
47251;SDS011;32991;51.374;11.586;2022-07-29T01:25:54;6.13;;;1.73;;
47251;SDS011;32991;51.374;11.586;2022-07-29T01:29:49;7.80;;;2.08;;
47251;SDS011;32991;51.374;11.586;2022-07-29T01:31:54;5.25;;;1.50;;
47251;SDS011;32991;51.374;11.586;2022-07-29T01:34:57;5.20;;;2.00;;
47251;SDS011;32991;51.374;11.586;2022-07-29T01:40:23;3.53;;;1.85;;
47251;SDS011;32991;51.374;11.586;2022-07-29T01:42:58;4.65;;;2.03;;
47251;SDS011;32991;51.374;11.586;2022-07-29T01:45:33;4.20;;;1.70;;
47251;SDS011;32991;51.374;11.586;2022-07-29T01:48:10;5.07;;;1.90;;
47251;SDS011;32991;51.374;11.586;2022-07-29T01:50:49;6.28;;;2.10;;
47251;SDS011;32991;51.374;11.586;2022-07-29T01:53:35;4.43;;;1.80;;
47251;SDS011;32991;51.374;11.586;2022-07-29T01:56:10;7.22;;;1.70;;
47251;SDS011;32991;51.374;11.586;2022-07-29T01:58:39;4.22;;;1.95;;
47251;SDS011;32991;51.374;11.586;2022-07-29T02:01:08;2.95;;;1.77;;
47251;SDS011;32991;51.374;11.586;2022-07-29T02:03:37;4.68;;;1.77;;
47251;SDS011;32991;51.374;11.586;2022-07-29T02:06:05;5.72;;;2.10;;
47251;SDS011;32991;51.374;11.586;2022-07-29T02:08:35;3.65;;;1.98;;
47251;SDS011;32991;51.374;11.586;2022-07-29T02:11:04;7.18;;;1.73;;
47251;SDS011;32991;51.374;11.586;2022-07-29T02:13:33;7.35;;;1.80;;
47251;SDS011;32991;51.374;11.586;2022-07-29T02:16:03;4.55;;;1.92;;
47251;SDS011;32991;51.374;11.586;2022-07-29T02:18:33;7.18;;;1.80;;
47251;SDS011;32991;51.374;11.586;2022-07-29T02:21:07;4.30;;;1.80;;
47251;SDS011;32991;51.374;11.586;2022-07-29T02:23:41;4.63;;;1.70;;
47251;SDS011;32991;51.374;11.586;2022-07-29T02:26:16;4.18;;;1.60;;
47251;SDS011;32991;51.374;11.586;2022-07-29T02:28:45;6.32;;;2.38;;
47251;SDS011;32991;51.374;11.586;2022-07-29T02:31:13;4.43;;;1.85;;
47251;SDS011;32991;51.374;11.586;2022-07-29T02:33:41;4.40;;;2.00;;
47251;SDS011;32991;51.374;11.586;2022-07-29T02:36:09;6.43;;;1.60;;
47251;SDS011;32991;51.374;11.586;2022-07-29T02:38:37;6.68;;;1.75;;
47251;SDS011;32991;51.374;11.586;2022-07-29T02:41:17;9.70;;;2.20;;
47251;SDS011;32991;51.374;11.586;2022-07-29T02:44:11;3.88;;;1.70;;
47251;SDS011;32991;51.374;11.586;2022-07-29T02:46:51;5.03;;;1.88;;
47251;SDS011;32991;51.374;11.586;2022-07-29T02:52:24;5.15;;;1.80;;
47251;SDS011;32991;51.374;11.586;2022-07-29T02:54:56;4.50;;;2.05;;
47251;SDS011;32991;51.374;11.586;2022-07-29T02:57:31;3.65;;;1.80;;
47251;SDS011;32991;51.374;11.586;2022-07-29T03:00:21;5.95;;;1.85;;
47251;SDS011;32991;51.374;11.586;2022-07-29T03:02:53;4.63;;;1.92;;
47251;SDS011;32991;51.374;11.586;2022-07-29T03:05:24;2.97;;;1.63;;
47251;SDS011;32991;51.374;11.586;2022-07-29T03:07:53;6.03;;;1.80;;
47251;SDS011;32991;51.374;11.586;2022-07-29T03:10:23;7.28;;;2.10;;
47251;SDS011;32991;51.374;11.586;2022-07-29T03:12:52;3.92;;;2.03;;
47251;SDS011;32991;51.374;11.586;2022-07-29T03:15:21;4.63;;;1.90;;
47251;SDS011;32991;51.374;11.586;2022-07-29T03:17:50;4.38;;;1.90;;
47251;SDS011;32991;51.374;11.586;2022-07-29T03:20:18;4.22;;;1.77;;
47251;SDS011;32991;51.374;11.586;2022-07-29T03:22:45;3.15;;;1.70;;
47251;SDS011;32991;51.374;11.586;2022-07-29T03:25:16;3.45;;;1.73;;
47251;SDS011;32991;51.374;11.586;2022-07-29T03:27:45;3.33;;;1.88;;
47251;SDS011;32991;51.374;11.586;2022-07-29T03:30:12;5.15;;;1.90;;
47251;SDS011;32991;51.374;11.586;2022-07-29T03:32:48;4.10;;;2.00;;
47251;SDS011;32991;51.374;11.586;2022-07-29T03:35:18;5.18;;;1.75;;
47251;SDS011;32991;51.374;11.586;2022-07-29T03:37:46;5.15;;;2.65;;
47251;SDS011;32991;51.374;11.586;2022-07-29T03:40:14;6.93;;;1.70;;
47251;SDS011;32991;51.374;11.586;2022-07-29T03:42:45;7.90;;;2.50;;
47251;SDS011;32991;51.374;11.586;2022-07-29T03:45:15;5.72;;;1.67;;
47251;SDS011;32991;51.374;11.586;2022-07-29T03:47:55;7.22;;;2.05;;
47251;SDS011;32991;51.374;11.586;2022-07-29T03:50:26;5.53;;;1.98;;
47251;SDS011;32991;51.374;11.586;2022-07-29T03:52:56;4.32;;;1.60;;
47251;SDS011;32991;51.374;11.586;2022-07-29T03:55:24;5.45;;;2.10;;
47251;SDS011;32991;51.374;11.586;2022-07-29T03:57:51;4.20;;;1.95;;
47251;SDS011;32991;51.374;11.586;2022-07-29T04:00:19;4.90;;;2.28;;
47251;SDS011;32991;51.374;11.586;2022-07-29T04:02:45;8.95;;;2.30;;
47251;SDS011;32991;51.374;11.586;2022-07-29T04:05:15;4.55;;;2.20;;
47251;SDS011;32991;51.374;11.586;2022-07-29T04:07:47;8.00;;;1.90;;
47251;SDS011;32991;51.374;11.586;2022-07-29T04:10:16;4.57;;;2.05;;
47251;SDS011;32991;51.374;11.586;2022-07-29T04:12:57;4.70;;;1.90;;
47251;SDS011;32991;51.374;11.586;2022-07-29T04:15:24;7.22;;;2.25;;
47251;SDS011;32991;51.374;11.586;2022-07-29T04:17:56;3.15;;;1.60;;
47251;SDS011;32991;51.374;11.586;2022-07-29T04:20:23;7.03;;;2.42;;
47251;SDS011;32991;51.374;11.586;2022-07-29T04:22:49;4.43;;;2.22;;
47251;SDS011;32991;51.374;11.586;2022-07-29T04:25:16;4.32;;;1.92;;
47251;SDS011;32991;51.374;11.586;2022-07-29T04:27:43;6.10;;;2.45;;
47251;SDS011;32991;51.374;11.586;2022-07-29T04:30:29;7.07;;;2.10;;
47251;SDS011;32991;51.374;11.586;2022-07-29T04:32:57;8.35;;;2.13;;
47251;SDS011;32991;51.374;11.586;2022-07-29T04:35:23;4.30;;;1.90;;
47251;SDS011;32991;51.374;11.586;2022-07-29T04:37:50;4.47;;;2.17;;
47251;SDS011;32991;51.374;11.586;2022-07-29T04:40:17;4.97;;;1.83;;
47251;SDS011;32991;51.374;11.586;2022-07-29T04:42:44;3.28;;;1.95;;
47251;SDS011;32991;51.374;11.586;2022-07-29T04:45:14;6.72;;;1.98;;
47251;SDS011;32991;51.374;11.586;2022-07-29T04:47:47;3.75;;;1.60;;
47251;SDS011;32991;51.374;11.586;2022-07-29T04:50:14;4.10;;;2.47;;
47251;SDS011;32991;51.374;11.586;2022-07-29T04:52:41;3.15;;;2.15;;
47251;SDS011;32991;51.374;11.586;2022-07-29T04:55:08;4.90;;;1.70;;
47251;SDS011;32991;51.374;11.586;2022-07-29T04:57:35;7.43;;;2.13;;
47251;SDS011;32991;51.374;11.586;2022-07-29T05:00:03;6.07;;;1.98;;
47251;SDS011;32991;51.374;11.586;2022-07-29T05:02:31;4.00;;;1.85;;
47251;SDS011;32991;51.374;11.586;2022-07-29T05:04:58;3.55;;;2.05;;
47251;SDS011;32991;51.374;11.586;2022-07-29T05:07:25;5.35;;;1.85;;
47251;SDS011;32991;51.374;11.586;2022-07-29T05:09:52;7.50;;;2.20;;
47251;SDS011;32991;51.374;11.586;2022-07-29T05:12:21;3.67;;;1.98;;
47251;SDS011;32991;51.374;11.586;2022-07-29T05:14:48;8.55;;;2.22;;
47251;SDS011;32991;51.374;11.586;2022-07-29T05:17:16;6.05;;;1.80;;
47251;SDS011;32991;51.374;11.586;2022-07-29T05:19:43;5.55;;;2.53;;
47251;SDS011;32991;51.374;11.586;2022-07-29T05:22:10;7.13;;;2.25;;
47251;SDS011;32991;51.374;11.586;2022-07-29T05:24:36;5.30;;;2.10;;
47251;SDS011;32991;51.374;11.586;2022-07-29T05:27:03;4.95;;;2.03;;
47251;SDS011;32991;51.374;11.586;2022-07-29T05:29:30;9.48;;;2.30;;
47251;SDS011;32991;51.374;11.586;2022-07-29T05:32:10;3.42;;;2.22;;
47251;SDS011;32991;51.374;11.586;2022-07-29T05:34:38;10.15;;;2.30;;
47251;SDS011;32991;51.374;11.586;2022-07-29T05:37:17;6.45;;;3.05;;
47251;SDS011;32991;51.374;11.586;2022-07-29T05:39:45;4.57;;;1.88;;
47251;SDS011;32991;51.374;11.586;2022-07-29T05:42:21;3.88;;;2.33;;
47251;SDS011;32991;51.374;11.586;2022-07-29T05:44:48;6.43;;;2.22;;
47251;SDS011;32991;51.374;11.586;2022-07-29T05:47:15;4.75;;;2.13;;
47251;SDS011;32991;51.374;11.586;2022-07-29T05:49:42;5.53;;;2.50;;
47251;SDS011;32991;51.374;11.586;2022-07-29T05:52:10;4.57;;;2.22;;
47251;SDS011;32991;51.374;11.586;2022-07-29T05:54:37;10.45;;;2.90;;
47251;SDS011;32991;51.374;11.586;2022-07-29T05:57:04;5.07;;;2.22;;
47251;SDS011;32991;51.374;11.586;2022-07-29T05:59:34;3.63;;;2.05;;
47251;SDS011;32991;51.374;11.586;2022-07-29T06:02:02;3.58;;;2.05;;
47251;SDS011;32991;51.374;11.586;2022-07-29T06:04:31;6.22;;;1.90;;
47251;SDS011;32991;51.374;11.586;2022-07-29T06:06:58;5.72;;;1.80;;
47251;SDS011;32991;51.374;11.586;2022-07-29T06:09:25;3.70;;;2.00;;
47251;SDS011;32991;51.374;11.586;2022-07-29T06:11:52;6.68;;;2.20;;
47251;SDS011;32991;51.374;11.586;2022-07-29T06:14:19;8.75;;;2.30;;
47251;SDS011;32991;51.374;11.586;2022-07-29T06:16:46;4.65;;;2.17;;
47251;SDS011;32991;51.374;11.586;2022-07-29T06:19:13;5.82;;;2.25;;
47251;SDS011;32991;51.374;11.586;2022-07-29T06:21:43;7.20;;;2.08;;
47251;SDS011;32991;51.374;11.586;2022-07-29T06:24:11;10.43;;;2.50;;
47251;SDS011;32991;51.374;11.586;2022-07-29T06:26:40;3.97;;;1.70;;
47251;SDS011;32991;51.374;11.586;2022-07-29T06:29:09;4.72;;;2.00;;
47251;SDS011;32991;51.374;11.586;2022-07-29T06:31:37;5.93;;;1.95;;
47251;SDS011;32991;51.374;11.586;2022-07-29T06:34:04;5.38;;;2.08;;
47251;SDS011;32991;51.374;11.586;2022-07-29T06:36:34;4.70;;;1.88;;
47251;SDS011;32991;51.374;11.586;2022-07-29T06:39:06;9.35;;;2.53;;
47251;SDS011;32991;51.374;11.586;2022-07-29T06:41:34;9.45;;;2.00;;
47251;SDS011;32991;51.374;11.586;2022-07-29T06:44:08;9.57;;;2.22;;
47251;SDS011;32991;51.374;11.586;2022-07-29T06:46:35;5.20;;;2.03;;
47251;SDS011;32991;51.374;11.586;2022-07-29T06:49:02;13.30;;;2.30;;
47251;SDS011;32991;51.374;11.586;2022-07-29T06:51:30;11.30;;;2.08;;
47251;SDS011;32991;51.374;11.586;2022-07-29T06:53:57;4.47;;;1.58;;
47251;SDS011;32991;51.374;11.586;2022-07-29T06:56:31;7.78;;;1.90;;
47251;SDS011;32991;51.374;11.586;2022-07-29T06:59:05;7.70;;;2.58;;
47251;SDS011;32991;51.374;11.586;2022-07-29T07:01:32;7.95;;;2.40;;
47251;SDS011;32991;51.374;11.586;2022-07-29T07:03:59;10.15;;;1.85;;
47251;SDS011;32991;51.374;11.586;2022-07-29T07:06:26;9.57;;;2.03;;
47251;SDS011;32991;51.374;11.586;2022-07-29T07:08:53;8.98;;;2.17;;
47251;SDS011;32991;51.374;11.586;2022-07-29T07:11:19;7.68;;;1.80;;
47251;SDS011;32991;51.374;11.586;2022-07-29T07:13:46;9.13;;;2.45;;
47251;SDS011;32991;51.374;11.586;2022-07-29T07:16:13;3.17;;;1.70;;
47251;SDS011;32991;51.374;11.586;2022-07-29T07:18:40;8.15;;;1.85;;
47251;SDS011;32991;51.374;11.586;2022-07-29T07:21:07;8.90;;;2.47;;
47251;SDS011;32991;51.374;11.586;2022-07-29T07:23:34;6.60;;;2.10;;
47251;SDS011;32991;51.374;11.586;2022-07-29T07:26:00;8.48;;;2.13;;
47251;SDS011;32991;51.374;11.586;2022-07-29T07:28:27;10.05;;;2.00;;
47251;SDS011;32991;51.374;11.586;2022-07-29T07:30:54;11.10;;;1.90;;
47251;SDS011;32991;51.374;11.586;2022-07-29T07:33:21;12.65;;;2.20;;
47251;SDS011;32991;51.374;11.586;2022-07-29T07:35:48;5.78;;;1.92;;
47251;SDS011;32991;51.374;11.586;2022-07-29T07:38:15;10.52;;;2.33;;
47251;SDS011;32991;51.374;11.586;2022-07-29T07:40:42;7.03;;;2.30;;
47251;SDS011;32991;51.374;11.586;2022-07-29T07:43:09;10.98;;;2.20;;
47251;SDS011;32991;51.374;11.586;2022-07-29T07:45:35;11.20;;;2.53;;
47251;SDS011;32991;51.374;11.586;2022-07-29T07:48:04;8.45;;;2.30;;
47251;SDS011;32991;51.374;11.586;2022-07-29T07:50:31;6.82;;;2.13;;
47251;SDS011;32991;51.374;11.586;2022-07-29T07:52:58;8.77;;;1.92;;
47251;SDS011;32991;51.374;11.586;2022-07-29T07:55:25;8.43;;;2.30;;
47251;SDS011;32991;51.374;11.586;2022-07-29T07:57:53;10.32;;;2.55;;
47251;SDS011;32991;51.374;11.586;2022-07-29T08:00:20;12.52;;;2.65;;
47251;SDS011;32991;51.374;11.586;2022-07-29T08:02:49;10.70;;;2.53;;
47251;SDS011;32991;51.374;11.586;2022-07-29T08:05:17;21.75;;;3.33;;
47251;SDS011;32991;51.374;11.586;2022-07-29T08:07:45;11.02;;;2.55;;
47251;SDS011;32991;51.374;11.586;2022-07-29T08:10:15;11.98;;;2.85;;
47251;SDS011;32991;51.374;11.586;2022-07-29T08:13:03;14.32;;;2.83;;
47251;SDS011;32991;51.374;11.586;2022-07-29T08:15:30;16.30;;;3.13;;
47251;SDS011;32991;51.374;11.586;2022-07-29T08:17:57;10.55;;;2.95;;
47251;SDS011;32991;51.374;11.586;2022-07-29T08:20:24;10.02;;;2.92;;
47251;SDS011;32991;51.374;11.586;2022-07-29T08:22:51;8.90;;;3.25;;
47251;SDS011;32991;51.374;11.586;2022-07-29T08:25:19;9.65;;;2.75;;
47251;SDS011;32991;51.374;11.586;2022-07-29T08:27:47;10.38;;;3.38;;
47251;SDS011;32991;51.374;11.586;2022-07-29T08:30:14;9.48;;;2.80;;
47251;SDS011;32991;51.374;11.586;2022-07-29T08:32:41;11.35;;;3.33;;
47251;SDS011;32991;51.374;11.586;2022-07-29T08:35:20;6.60;;;3.20;;
47251;SDS011;32991;51.374;11.586;2022-07-29T08:37:47;12.77;;;3.80;;
47251;SDS011;32991;51.374;11.586;2022-07-29T08:40:14;9.02;;;3.42;;
47251;SDS011;32991;51.374;11.586;2022-07-29T08:42:41;8.40;;;3.45;;
47251;SDS011;32991;51.374;11.586;2022-07-29T08:45:08;14.75;;;3.85;;
47251;SDS011;32991;51.374;11.586;2022-07-29T08:47:35;8.93;;;4.00;;
47251;SDS011;32991;51.374;11.586;2022-07-29T08:50:06;13.73;;;3.97;;
47251;SDS011;32991;51.374;11.586;2022-07-29T08:52:38;10.43;;;3.50;;
47251;SDS011;32991;51.374;11.586;2022-07-29T08:55:07;11.38;;;3.42;;
47251;SDS011;32991;51.374;11.586;2022-07-29T08:57:35;10.70;;;3.28;;
47251;SDS011;32991;51.374;11.586;2022-07-29T09:00:16;10.77;;;3.35;;
47251;SDS011;32991;51.374;11.586;2022-07-29T09:02:45;8.00;;;3.17;;
47251;SDS011;32991;51.374;11.586;2022-07-29T09:05:17;10.38;;;3.53;;
47251;SDS011;32991;51.374;11.586;2022-07-29T09:07:45;7.28;;;3.50;;
47251;SDS011;32991;51.374;11.586;2022-07-29T09:10:14;7.57;;;3.10;;
47251;SDS011;32991;51.374;11.586;2022-07-29T09:12:41;11.93;;;3.42;;
47251;SDS011;32991;51.374;11.586;2022-07-29T09:15:08;9.18;;;3.05;;
47251;SDS011;32991;51.374;11.586;2022-07-29T09:17:45;7.97;;;2.75;;
47251;SDS011;32991;51.374;11.586;2022-07-29T09:20:22;5.70;;;3.30;;
47251;SDS011;32991;51.374;11.586;2022-07-29T09:22:50;4.95;;;3.15;;
47251;SDS011;32991;51.374;11.586;2022-07-29T09:25:32;7.32;;;3.25;;
47251;SDS011;32991;51.374;11.586;2022-07-29T09:28:13;8.70;;;2.97;;
47251;SDS011;32991;51.374;11.586;2022-07-29T09:30:52;7.80;;;3.17;;
47251;SDS011;32991;51.374;11.586;2022-07-29T09:33:21;7.97;;;2.95;;
47251;SDS011;32991;51.374;11.586;2022-07-29T09:36:05;7.65;;;3.30;;
47251;SDS011;32991;51.374;11.586;2022-07-29T09:38:33;6.80;;;3.40;;
47251;SDS011;32991;51.374;11.586;2022-07-29T09:41:03;11.80;;;3.72;;
47251;SDS011;32991;51.374;11.586;2022-07-29T09:43:33;4.20;;;3.20;;
47251;SDS011;32991;51.374;11.586;2022-07-29T09:46:10;14.23;;;4.05;;
47251;SDS011;32991;51.374;11.586;2022-07-29T09:48:38;6.47;;;3.70;;
47251;SDS011;32991;51.374;11.586;2022-07-29T09:51:05;5.50;;;3.50;;
47251;SDS011;32991;51.374;11.586;2022-07-29T09:53:55;9.27;;;3.17;;
47251;SDS011;32991;51.374;11.586;2022-07-29T09:56:40;6.35;;;3.30;;
47251;SDS011;32991;51.374;11.586;2022-07-29T09:59:08;7.85;;;3.42;;
47251;SDS011;32991;51.374;11.586;2022-07-29T10:01:37;8.60;;;3.25;;
47251;SDS011;32991;51.374;11.586;2022-07-29T10:04:04;8.60;;;3.20;;
47251;SDS011;32991;51.374;11.586;2022-07-29T10:06:31;7.90;;;3.70;;
47251;SDS011;32991;51.374;11.586;2022-07-29T10:09:07;13.77;;;3.80;;
47251;SDS011;32991;51.374;11.586;2022-07-29T10:11:35;5.75;;;3.38;;
47251;SDS011;32991;51.374;11.586;2022-07-29T10:14:14;7.05;;;3.38;;
47251;SDS011;32991;51.374;11.586;2022-07-29T10:16:42;8.60;;;3.70;;
47251;SDS011;32991;51.374;11.586;2022-07-29T10:19:09;6.68;;;3.83;;
47251;SDS011;32991;51.374;11.586;2022-07-29T10:21:36;5.20;;;3.60;;
47251;SDS011;32991;51.374;11.586;2022-07-29T10:24:07;7.82;;;3.78;;
47251;SDS011;32991;51.374;11.586;2022-07-29T10:26:40;7.30;;;4.18;;
47251;SDS011;32991;51.374;11.586;2022-07-29T10:29:08;5.72;;;4.32;;
47251;SDS011;32991;51.374;11.586;2022-07-29T10:31:50;7.22;;;3.63;;
47251;SDS011;32991;51.374;11.586;2022-07-29T10:34:36;10.77;;;4.60;;
47251;SDS011;32991;51.374;11.586;2022-07-29T10:40:17;5.75;;;3.20;;
47251;SDS011;32991;51.374;11.586;2022-07-29T10:43:41;6.22;;;3.83;;
47251;SDS011;32991;51.374;11.586;2022-07-29T10:46:12;5.75;;;3.30;;
47251;SDS011;32991;51.374;11.586;2022-07-29T10:57:18;8.63;;;3.25;;
47251;SDS011;32991;51.374;11.586;2022-07-29T11:02:43;5.80;;;2.95;;
47251;SDS011;32991;51.374;11.586;2022-07-29T11:05:16;4.22;;;2.78;;
47251;SDS011;32991;51.374;11.586;2022-07-29T11:10:45;5.68;;;2.60;;
47251;SDS011;32991;51.374;11.586;2022-07-29T11:13:44;6.82;;;2.50;;
47251;SDS011;32991;51.374;11.586;2022-07-29T11:16:12;4.55;;;2.30;;
47251;SDS011;32991;51.374;11.586;2022-07-29T11:21:40;5.45;;;2.67;;
47251;SDS011;32991;51.374;11.586;2022-07-29T11:24:28;3.97;;;2.20;;
47251;SDS011;32991;51.374;11.586;2022-07-29T11:27:07;5.93;;;2.95;;
47251;SDS011;32991;51.374;11.586;2022-07-29T11:29:47;4.90;;;2.45;;
47251;SDS011;32991;51.374;11.586;2022-07-29T11:32:15;6.18;;;2.40;;
47251;SDS011;32991;51.374;11.586;2022-07-29T11:34:48;7.43;;;2.17;;
47251;SDS011;32991;51.374;11.586;2022-07-29T11:43:46;4.25;;;2.40;;
47251;SDS011;32991;51.374;11.586;2022-07-29T11:49:20;4.35;;;2.15;;
47251;SDS011;32991;51.374;11.586;2022-07-29T11:51:58;6.80;;;2.60;;
47251;SDS011;32991;51.374;11.586;2022-07-29T11:54:32;3.60;;;2.10;;
47251;SDS011;32991;51.374;11.586;2022-07-29T11:57:20;4.93;;;2.30;;
47251;SDS011;32991;51.374;11.586;2022-07-29T11:59:47;4.88;;;2.33;;
47251;SDS011;32991;51.374;11.586;2022-07-29T12:02:14;3.95;;;2.40;;
47251;SDS011;32991;51.374;11.586;2022-07-29T12:05:02;5.55;;;2.10;;
47251;SDS011;32991;51.374;11.586;2022-07-29T12:07:37;6.65;;;2.65;;
47251;SDS011;32991;51.374;11.586;2022-07-29T12:10:06;6.32;;;2.28;;
47251;SDS011;32991;51.374;11.586;2022-07-29T12:12:50;9.48;;;2.17;;
47251;SDS011;32991;51.374;11.586;2022-07-29T12:15:19;5.63;;;2.33;;
47251;SDS011;32991;51.374;11.586;2022-07-29T12:17:47;5.60;;;2.20;;
47251;SDS011;32991;51.374;11.586;2022-07-29T12:20:21;7.00;;;2.58;;
47251;SDS011;32991;51.374;11.586;2022-07-29T12:22:55;4.18;;;2.20;;
47251;SDS011;32991;51.374;11.586;2022-07-29T12:25:23;4.32;;;2.53;;
47251;SDS011;32991;51.374;11.586;2022-07-29T12:27:59;3.42;;;2.20;;
47251;SDS011;32991;51.374;11.586;2022-07-29T12:30:40;4.88;;;2.15;;
47251;SDS011;32991;51.374;11.586;2022-07-29T12:33:14;5.63;;;2.40;;
47251;SDS011;32991;51.374;11.586;2022-07-29T12:35:44;3.67;;;2.53;;
47251;SDS011;32991;51.374;11.586;2022-07-29T12:38:32;5.70;;;2.30;;
47251;SDS011;32991;51.374;11.586;2022-07-29T12:41:03;5.35;;;2.78;;
47251;SDS011;32991;51.374;11.586;2022-07-29T12:43:30;7.78;;;2.95;;
47251;SDS011;32991;51.374;11.586;2022-07-29T12:45:57;5.38;;;2.90;;
47251;SDS011;32991;51.374;11.586;2022-07-29T12:48:42;4.88;;;3.25;;
47251;SDS011;32991;51.374;11.586;2022-07-29T12:51:09;7.65;;;2.80;;
47251;SDS011;32991;51.374;11.586;2022-07-29T12:53:38;8.98;;;2.80;;
47251;SDS011;32991;51.374;11.586;2022-07-29T12:56:05;9.18;;;3.67;;
47251;SDS011;32991;51.374;11.586;2022-07-29T12:59:10;8.07;;;4.13;;
47251;SDS011;32991;51.374;11.586;2022-07-29T13:01:49;5.82;;;3.38;;
47251;SDS011;32991;51.374;11.586;2022-07-29T13:04:33;6.43;;;3.40;;
47251;SDS011;32991;51.374;11.586;2022-07-29T13:07:03;4.53;;;2.50;;
47251;SDS011;32991;51.374;11.586;2022-07-29T13:09:42;8.30;;;2.38;;
47251;SDS011;32991;51.374;11.586;2022-07-29T13:12:12;5.30;;;2.35;;
47251;SDS011;32991;51.374;11.586;2022-07-29T13:14:49;5.35;;;2.30;;
47251;SDS011;32991;51.374;11.586;2022-07-29T13:17:20;6.28;;;2.28;;
47251;SDS011;32991;51.374;11.586;2022-07-29T13:19:50;4.93;;;2.30;;
47251;SDS011;32991;51.374;11.586;2022-07-29T13:22:18;4.30;;;2.33;;
47251;SDS011;32991;51.374;11.586;2022-07-29T13:27:14;5.70;;;2.10;;
47251;SDS011;32991;51.374;11.586;2022-07-29T13:29:42;7.45;;;1.95;;
47251;SDS011;32991;51.374;11.586;2022-07-29T13:32:10;4.97;;;2.13;;
47251;SDS011;32991;51.374;11.586;2022-07-29T13:34:38;6.72;;;2.00;;
47251;SDS011;32991;51.374;11.586;2022-07-29T13:37:05;5.05;;;1.83;;
47251;SDS011;32991;51.374;11.586;2022-07-29T13:39:32;8.05;;;1.80;;
47251;SDS011;32991;51.374;11.586;2022-07-29T13:41:58;4.50;;;1.67;;
47251;SDS011;32991;51.374;11.586;2022-07-29T13:44:26;3.17;;;1.90;;
47251;SDS011;32991;51.374;11.586;2022-07-29T13:46:53;4.93;;;1.73;;
47251;SDS011;32991;51.374;11.586;2022-07-29T13:49:20;4.53;;;1.80;;
47251;SDS011;32991;51.374;11.586;2022-07-29T13:51:48;4.85;;;1.83;;
47251;SDS011;32991;51.374;11.586;2022-07-29T13:54:16;4.50;;;2.17;;
47251;SDS011;32991;51.374;11.586;2022-07-29T13:56:42;3.10;;;1.85;;
47251;SDS011;32991;51.374;11.586;2022-07-29T13:59:11;6.75;;;2.33;;
47251;SDS011;32991;51.374;11.586;2022-07-29T14:01:38;3.40;;;1.77;;
47251;SDS011;32991;51.374;11.586;2022-07-29T14:04:08;3.63;;;1.60;;
47251;SDS011;32991;51.374;11.586;2022-07-29T14:06:37;5.03;;;1.90;;
47251;SDS011;32991;51.374;11.586;2022-07-29T14:09:05;4.38;;;2.00;;
47251;SDS011;32991;51.374;11.586;2022-07-29T14:11:34;4.75;;;1.73;;
47251;SDS011;32991;51.374;11.586;2022-07-29T14:14:01;4.07;;;2.00;;
47251;SDS011;32991;51.374;11.586;2022-07-29T14:16:28;3.80;;;2.03;;
47251;SDS011;32991;51.374;11.586;2022-07-29T14:18:55;3.45;;;2.10;;
47251;SDS011;32991;51.374;11.586;2022-07-29T14:21:22;2.92;;;1.80;;
47251;SDS011;32991;51.374;11.586;2022-07-29T14:23:50;6.47;;;2.35;;
47251;SDS011;32991;51.374;11.586;2022-07-29T14:26:18;7.95;;;1.85;;
47251;SDS011;32991;51.374;11.586;2022-07-29T14:28:49;4.40;;;1.90;;
47251;SDS011;32991;51.374;11.586;2022-07-29T14:31:16;2.50;;;1.80;;
47251;SDS011;32991;51.374;11.586;2022-07-29T14:33:43;3.95;;;1.80;;
47251;SDS011;32991;51.374;11.586;2022-07-29T14:36:14;2.40;;;1.90;;
47251;SDS011;32991;51.374;11.586;2022-07-29T14:38:41;4.03;;;2.00;;
47251;SDS011;32991;51.374;11.586;2022-07-29T14:41:08;2.60;;;1.70;;
47251;SDS011;32991;51.374;11.586;2022-07-29T14:43:35;4.35;;;2.20;;
47251;SDS011;32991;51.374;11.586;2022-07-29T14:46:01;3.13;;;1.83;;
47251;SDS011;32991;51.374;11.586;2022-07-29T14:48:33;3.75;;;2.13;;
47251;SDS011;32991;51.374;11.586;2022-07-29T14:51:01;2.60;;;1.90;;
47251;SDS011;32991;51.374;11.586;2022-07-29T14:53:30;3.05;;;1.77;;
47251;SDS011;32991;51.374;11.586;2022-07-29T14:55:57;4.25;;;1.80;;
47251;SDS011;32991;51.374;11.586;2022-07-29T14:58:44;5.93;;;1.98;;
47251;SDS011;32991;51.374;11.586;2022-07-29T15:01:17;4.35;;;1.90;;
47251;SDS011;32991;51.374;11.586;2022-07-29T15:03:44;4.00;;;2.03;;
47251;SDS011;32991;51.374;11.586;2022-07-29T15:06:11;3.22;;;1.77;;
47251;SDS011;32991;51.374;11.586;2022-07-29T15:08:38;2.85;;;1.67;;
47251;SDS011;32991;51.374;11.586;2022-07-29T15:11:05;3.30;;;2.00;;
47251;SDS011;32991;51.374;11.586;2022-07-29T15:13:32;4.53;;;2.38;;
47251;SDS011;32991;51.374;11.586;2022-07-29T15:15:59;5.50;;;1.90;;
47251;SDS011;32991;51.374;11.586;2022-07-29T15:18:26;2.17;;;1.67;;
47251;SDS011;32991;51.374;11.586;2022-07-29T15:20:53;2.10;;;1.90;;
47251;SDS011;32991;51.374;11.586;2022-07-29T15:23:20;2.30;;;1.83;;
47251;SDS011;32991;51.374;11.586;2022-07-29T15:25:47;3.45;;;1.95;;
47251;SDS011;32991;51.374;11.586;2022-07-29T15:28:13;2.53;;;1.83;;
47251;SDS011;32991;51.374;11.586;2022-07-29T15:30:40;3.47;;;2.17;;
47251;SDS011;32991;51.374;11.586;2022-07-29T15:33:08;2.58;;;2.03;;
47251;SDS011;32991;51.374;11.586;2022-07-29T15:35:38;7.53;;;1.80;;
47251;SDS011;32991;51.374;11.586;2022-07-29T15:38:06;2.03;;;1.75;;
47251;SDS011;32991;51.374;11.586;2022-07-29T15:40:33;3.33;;;2.03;;
47251;SDS011;32991;51.374;11.586;2022-07-29T15:43:03;4.28;;;2.03;;